createdAt,value
2023-01-03T00:00:29.872Z,1011.94
2023-01-03T00:01:29.838Z,1011.93
2023-01-03T00:02:29.892Z,1011.93
2023-01-03T00:03:29.831Z,1011.96
2023-01-03T00:04:29.902Z,1011.98
2023-01-03T00:05:29.803Z,1012.01
2023-01-03T00:06:29.796Z,1012.02
2023-01-03T00:07:29.835Z,1012.03
2023-01-03T00:08:29.757Z,1012.03
2023-01-03T00:09:29.776Z,1012.04
2023-01-03T00:10:29.819Z,1012.08
2023-01-03T00:11:29.742Z,1012.10
2023-01-03T00:12:31.304Z,1012.11
2023-01-03T00:13:29.729Z,1012.13
2023-01-03T00:14:29.747Z,1012.14
2023-01-03T00:15:29.790Z,1012.13
2023-01-03T00:16:29.715Z,1012.13
2023-01-03T00:17:29.669Z,1012.11
2023-01-03T00:18:29.673Z,1012.09
2023-01-03T00:19:29.649Z,1012.09
2023-01-03T00:20:29.653Z,1012.09
2023-01-03T00:21:29.627Z,1012.08
2023-01-03T00:22:29.657Z,1012.09
2023-01-03T00:23:29.612Z,1012.09
2023-01-03T00:24:29.579Z,1012.10
2023-01-03T00:25:29.631Z,1012.10
2023-01-03T00:26:29.583Z,1012.10
2023-01-03T00:27:29.566Z,1012.11
2023-01-03T00:28:29.553Z,1012.12
2023-01-03T00:29:29.540Z,1012.12
2023-01-03T00:30:29.630Z,1012.13
2023-01-03T00:31:29.612Z,1012.13
2023-01-03T00:32:29.527Z,1012.14
2023-01-03T00:33:29.562Z,1012.14
2023-01-03T00:34:29.538Z,1012.15
2023-01-03T00:35:29.479Z,1012.16
2023-01-03T00:36:29.490Z,1012.17
2023-01-03T00:37:29.460Z,1012.18
2023-01-03T00:38:29.572Z,1012.19
2023-01-03T00:39:29.461Z,1012.20
2023-01-03T00:40:29.469Z,1012.20
2023-01-03T00:41:29.418Z,1012.19
2023-01-03T00:42:29.425Z,1012.20
2023-01-03T00:43:29.397Z,1012.20
2023-01-03T00:44:30.063Z,1012.19
2023-01-03T00:45:35.049Z,1012.20
2023-01-03T00:46:29.417Z,1012.21
2023-01-03T00:47:29.390Z,1012.21
2023-01-03T00:48:29.345Z,1012.21
2023-01-03T00:49:29.355Z,1012.22
2023-01-03T00:50:29.314Z,1012.22
2023-01-03T00:51:29.321Z,1012.23
2023-01-03T00:52:29.337Z,1012.24
2023-01-03T00:53:29.278Z,1012.25
2023-01-03T00:54:29.282Z,1012.24
2023-01-03T00:55:29.322Z,1012.22
2023-01-03T00:56:29.259Z,1012.22
2023-01-03T00:57:29.286Z,1012.21
2023-01-03T00:58:29.241Z,1012.20
2023-01-03T00:59:29.232Z,1012.19
2023-01-03T01:00:29.213Z,1012.20
2023-01-03T01:01:29.366Z,1012.20
2023-01-03T01:02:29.432Z,1012.20
2023-01-03T01:03:29.466Z,1012.21
2023-01-03T01:04:29.184Z,1012.21
2023-01-03T01:05:29.191Z,1012.23
2023-01-03T01:06:29.181Z,1012.23
2023-01-03T01:07:30.259Z,1012.23
2023-01-03T01:08:29.136Z,1012.25
2023-01-03T01:09:29.146Z,1012.26
2023-01-03T01:10:29.116Z,1012.28
2023-01-03T01:11:29.108Z,1012.29
2023-01-03T01:12:29.086Z,1012.33
2023-01-03T01:13:29.089Z,1012.35
2023-01-03T01:14:29.124Z,1012.35
2023-01-03T01:15:29.118Z,1012.37
2023-01-03T01:16:29.105Z,1012.37
2023-01-03T01:17:29.051Z,1012.37
2023-01-03T01:18:29.029Z,1012.36
2023-01-03T01:19:29.056Z,1012.35
2023-01-03T01:20:29.025Z,1012.36
2023-01-03T01:21:29.023Z,1012.36
2023-01-03T01:22:28.978Z,1012.32
2023-01-03T01:23:28.992Z,1012.39
2023-01-03T01:24:29.001Z,1012.38
2023-01-03T01:25:28.975Z,1012.39
2023-01-03T01:26:28.933Z,1012.38
2023-01-03T01:27:28.941Z,1012.40
2023-01-03T01:28:33.026Z,1012.41
2023-01-03T01:29:28.912Z,1012.43
2023-01-03T01:30:29.676Z,1012.45
2023-01-03T01:31:29.013Z,1012.44
2023-01-03T01:32:28.878Z,1012.43
2023-01-03T01:33:28.908Z,1012.44
2023-01-03T01:34:28.863Z,1012.44
2023-01-03T01:35:28.919Z,1012.45
2023-01-03T01:36:28.834Z,1012.49
2023-01-03T01:37:28.827Z,1012.51
2023-01-03T01:38:28.832Z,1012.50
2023-01-03T01:39:28.862Z,1012.50
2023-01-03T01:40:28.863Z,1012.49
2023-01-03T01:41:28.800Z,1012.50
2023-01-03T01:42:30.926Z,1012.52
2023-01-03T01:43:28.779Z,1012.52
2023-01-03T01:44:28.770Z,1012.56
2023-01-03T01:45:28.733Z,1012.56
2023-01-03T01:46:28.847Z,1012.57
2023-01-03T01:47:28.755Z,1012.58
2023-01-03T01:48:28.731Z,1012.59
2023-01-03T01:49:28.705Z,1012.57
2023-01-03T01:50:28.683Z,1012.58
2023-01-03T01:51:28.687Z,1012.60
2023-01-03T01:52:28.833Z,1012.66
2023-01-03T01:53:35.198Z,1012.66
2023-01-03T01:54:28.639Z,1012.68
2023-01-03T01:55:28.661Z,1012.68
2023-01-03T01:56:28.624Z,1012.70
2023-01-03T01:57:28.664Z,1012.70
2023-01-03T01:58:28.600Z,1012.71
2023-01-03T01:59:28.626Z,1012.74
2023-01-03T02:00:28.615Z,1012.77
2023-01-03T02:01:28.657Z,1012.80
2023-01-03T02:02:28.728Z,1012.81
2023-01-03T02:03:28.621Z,1012.83
2023-01-03T02:04:28.539Z,1012.83
2023-01-03T02:05:28.561Z,1012.84
2023-01-03T02:06:28.579Z,1012.82
2023-01-03T02:07:28.554Z,1012.82
2023-01-03T02:08:28.523Z,1012.82
2023-01-03T02:09:28.526Z,1012.85
2023-01-03T02:10:28.520Z,1012.84
2023-01-03T02:11:28.501Z,1012.86
2023-01-03T02:12:28.468Z,1012.86
2023-01-03T02:13:28.456Z,1012.85
2023-01-03T02:14:28.436Z,1012.87
2023-01-03T02:15:28.435Z,1012.88
2023-01-03T02:16:28.506Z,1012.87
2023-01-03T02:17:28.437Z,1012.88
2023-01-03T02:18:28.394Z,1012.87
2023-01-03T02:19:28.398Z,1012.87
2023-01-03T02:20:28.372Z,1012.87
2023-01-03T02:21:28.394Z,1012.88
2023-01-03T02:22:28.357Z,1012.90
2023-01-03T02:23:28.368Z,1012.92
2023-01-03T02:24:28.324Z,1012.92
2023-01-03T02:25:28.343Z,1012.92
2023-01-03T02:26:28.319Z,1012.94
2023-01-03T02:27:28.389Z,1012.94
2023-01-03T02:28:28.332Z,1012.96
2023-01-03T02:29:28.295Z,1012.98
2023-01-03T02:30:28.277Z,1013.01
2023-01-03T02:31:28.280Z,1013.02
2023-01-03T02:32:28.250Z,1013.04
2023-01-03T02:33:28.241Z,1013.05
2023-01-03T02:34:28.263Z,1013.08
2023-01-03T02:35:28.213Z,1013.09
2023-01-03T02:36:28.223Z,1013.11
2023-01-03T02:37:28.225Z,1013.13
2023-01-03T02:38:28.210Z,1013.13
2023-01-03T02:39:28.212Z,1013.13
2023-01-03T02:40:28.158Z,1013.12
2023-01-03T02:41:28.155Z,1013.14
2023-01-03T02:42:28.137Z,1013.16
2023-01-03T02:43:28.126Z,1013.16
2023-01-03T02:44:28.146Z,1013.17
2023-01-03T02:45:28.112Z,1013.18
2023-01-03T02:46:28.229Z,1013.18
2023-01-03T02:47:28.096Z,1013.18
2023-01-03T02:48:28.076Z,1013.18
2023-01-03T02:49:28.102Z,1013.18
2023-01-03T02:50:28.072Z,1013.18
2023-01-03T02:51:28.046Z,1013.18
2023-01-03T02:52:28.055Z,1013.19
2023-01-03T02:53:28.813Z,1013.18
2023-01-03T02:54:28.046Z,1013.17
2023-01-03T02:55:28.016Z,1013.19
2023-01-03T02:56:27.991Z,1013.19
2023-01-03T02:57:27.985Z,1013.21
2023-01-03T02:58:27.972Z,1013.22
2023-01-03T02:59:27.967Z,1013.22
2023-01-03T03:00:27.983Z,1013.21
2023-01-03T03:01:28.054Z,1013.21
2023-01-03T03:02:28.036Z,1013.20
2023-01-03T03:03:28.021Z,1013.22
2023-01-03T03:04:27.914Z,1013.21
2023-01-03T03:05:27.930Z,1013.21
2023-01-03T03:06:27.898Z,1013.22
2023-01-03T03:07:27.883Z,1013.21
2023-01-03T03:08:27.868Z,1013.20
2023-01-03T03:09:27.865Z,1013.21
2023-01-03T03:10:27.866Z,1013.21
2023-01-03T03:11:27.838Z,1013.22
2023-01-03T03:12:27.824Z,1013.21
2023-01-03T03:13:27.835Z,1013.21
2023-01-03T03:14:27.810Z,1013.20
2023-01-03T03:15:27.848Z,1013.20
2023-01-03T03:16:27.812Z,1013.20
2023-01-03T03:17:27.789Z,1013.20
2023-01-03T03:18:27.746Z,1013.20
2023-01-03T03:19:27.766Z,1013.20
2023-01-03T03:20:27.751Z,1013.21
2023-01-03T03:21:27.736Z,1013.19
2023-01-03T03:22:27.737Z,1013.20
2023-01-03T03:23:27.776Z,1013.22
2023-01-03T03:24:27.725Z,1013.22
2023-01-03T03:25:27.687Z,1013.22
2023-01-03T03:26:27.690Z,1013.21
2023-01-03T03:27:27.675Z,1013.20
2023-01-03T03:28:27.663Z,1013.22
2023-01-03T03:29:27.672Z,1013.22
2023-01-03T03:30:27.661Z,1013.21
2023-01-03T03:31:27.747Z,1013.21
2023-01-03T03:32:27.611Z,1013.20
2023-01-03T03:33:27.601Z,1013.21
2023-01-03T03:34:27.614Z,1013.20
2023-01-03T03:35:27.616Z,1013.19
2023-01-03T03:36:27.581Z,1013.19
2023-01-03T03:37:27.617Z,1013.20
2023-01-03T03:38:27.564Z,1013.19
2023-01-03T03:39:27.618Z,1013.17
2023-01-03T03:40:27.550Z,1013.20
2023-01-03T03:41:27.517Z,1013.19
2023-01-03T03:42:27.539Z,1013.22
2023-01-03T03:43:27.548Z,1013.21
2023-01-03T03:44:27.511Z,1013.21
2023-01-03T03:45:27.522Z,1013.20
2023-01-03T03:46:27.528Z,1013.20
2023-01-03T03:47:27.822Z,1013.22
2023-01-03T03:48:27.628Z,1013.22
2023-01-03T03:49:27.500Z,1013.21
2023-01-03T03:50:27.455Z,1013.25
2023-01-03T03:51:27.412Z,1013.24
2023-01-03T03:52:27.485Z,1013.22
2023-01-03T03:53:27.398Z,1013.22
2023-01-03T03:54:27.406Z,1013.22
2023-01-03T03:55:27.401Z,1013.22
2023-01-03T03:56:27.509Z,1013.23
2023-01-03T03:57:27.366Z,1013.24
2023-01-03T03:58:27.478Z,1013.26
2023-01-03T03:59:27.373Z,1013.27
2023-01-03T04:00:27.394Z,1013.28
2023-01-03T04:01:27.538Z,1013.29
2023-01-03T04:02:27.604Z,1013.31
2023-01-03T04:03:27.416Z,1013.31
2023-01-03T04:04:27.304Z,1013.31
2023-01-03T04:05:27.321Z,1013.33
2023-01-03T04:06:27.344Z,1013.32
2023-01-03T04:07:27.322Z,1013.31
2023-01-03T04:08:27.300Z,1013.29
2023-01-03T04:09:27.226Z,1013.28
2023-01-03T04:10:30.253Z,1013.29
2023-01-03T04:11:27.223Z,1013.27
2023-01-03T04:12:27.206Z,1013.26
2023-01-03T04:13:27.182Z,1013.26
2023-01-03T04:14:27.235Z,1013.28
2023-01-03T04:15:27.172Z,1013.28
2023-01-03T04:16:27.190Z,1013.28
2023-01-03T04:17:27.143Z,1013.29
2023-01-03T04:18:27.145Z,1013.29
2023-01-03T04:19:27.131Z,1013.28
2023-01-03T04:20:27.346Z,1013.28
2023-01-03T04:21:27.107Z,1013.28
2023-01-03T04:22:27.104Z,1013.28
2023-01-03T04:23:27.080Z,1013.29
2023-01-03T04:24:27.079Z,1013.30
2023-01-03T04:25:27.096Z,1013.31
2023-01-03T04:26:27.080Z,1013.32
2023-01-03T04:27:27.040Z,1013.34
2023-01-03T04:28:27.067Z,1013.36
2023-01-03T04:29:27.017Z,1013.36
2023-01-03T04:30:27.015Z,1013.35
2023-01-03T04:31:27.212Z,1013.34
2023-01-03T04:32:27.008Z,1013.33
2023-01-03T04:33:26.976Z,1013.31
2023-01-03T04:34:26.981Z,1013.31
2023-01-03T04:35:26.976Z,1013.32
2023-01-03T04:36:26.963Z,1013.33
2023-01-03T04:37:26.995Z,1013.34
2023-01-03T04:38:26.943Z,1013.36
2023-01-03T04:39:26.949Z,1013.37
2023-01-03T04:40:26.921Z,1013.37
2023-01-03T04:41:26.900Z,1013.38
2023-01-03T04:42:26.902Z,1013.41
2023-01-03T04:43:26.873Z,1013.42
2023-01-03T04:44:26.875Z,1013.44
2023-01-03T04:45:26.957Z,1013.45
2023-01-03T04:46:26.984Z,1013.44
2023-01-03T04:47:26.843Z,1013.45
2023-01-03T04:48:26.832Z,1013.45
2023-01-03T04:49:26.821Z,1013.45
2023-01-03T04:50:26.845Z,1013.46
2023-01-03T04:51:26.792Z,1013.46
2023-01-03T04:52:26.809Z,1013.46
2023-01-03T04:53:26.782Z,1013.47
2023-01-03T04:54:26.777Z,1013.48
2023-01-03T04:55:26.833Z,1013.50
2023-01-03T04:56:26.754Z,1013.52
2023-01-03T04:57:26.735Z,1013.51
2023-01-03T04:58:26.796Z,1013.50
2023-01-03T04:59:26.709Z,1013.51
2023-01-03T05:00:26.758Z,1013.51
2023-01-03T05:01:26.900Z,1013.51
2023-01-03T05:02:26.781Z,1013.50
2023-01-03T05:03:28.100Z,1013.52
2023-01-03T05:04:26.781Z,1013.54
2023-01-03T05:05:26.657Z,1013.53
2023-01-03T05:06:26.684Z,1013.54
2023-01-03T05:07:26.662Z,1013.57
2023-01-03T05:08:26.637Z,1013.60
2023-01-03T05:09:26.616Z,1013.62
2023-01-03T05:10:26.627Z,1013.59
2023-01-03T05:11:26.584Z,1013.60
2023-01-03T05:12:26.607Z,1013.58
2023-01-03T05:13:26.563Z,1013.61
2023-01-03T05:14:26.595Z,1013.58
2023-01-03T05:15:26.573Z,1013.59
2023-01-03T05:16:26.622Z,1013.61
2023-01-03T05:17:26.541Z,1013.65
2023-01-03T05:18:26.547Z,1013.65
2023-01-03T05:19:26.524Z,1013.70
2023-01-03T05:20:26.694Z,1013.64
2023-01-03T05:21:26.531Z,1013.66
2023-01-03T05:22:26.503Z,1013.66
2023-01-03T05:23:26.553Z,1013.69
2023-01-03T05:24:26.491Z,1013.71
2023-01-03T05:25:26.532Z,1013.72
2023-01-03T05:26:26.458Z,1013.71
2023-01-03T05:27:26.441Z,1013.72
2023-01-03T05:28:26.439Z,1013.73
2023-01-03T05:29:26.438Z,1013.75
2023-01-03T05:30:26.408Z,1013.76
2023-01-03T05:31:26.430Z,1013.75
2023-01-03T05:32:26.384Z,1013.77
2023-01-03T05:33:26.402Z,1013.78
2023-01-03T05:34:26.384Z,1013.77
2023-01-03T05:35:26.382Z,1013.76
2023-01-03T05:36:26.341Z,1013.76
2023-01-03T05:37:26.333Z,1013.77
2023-01-03T05:38:26.319Z,1013.79
2023-01-03T05:39:26.337Z,1013.79
2023-01-03T05:40:26.300Z,1013.80
2023-01-03T05:41:26.281Z,1013.84
2023-01-03T05:42:26.280Z,1013.82
2023-01-03T05:43:26.263Z,1013.83
2023-01-03T05:44:26.272Z,1013.82
2023-01-03T05:45:26.284Z,1013.85
2023-01-03T05:46:26.309Z,1013.86
2023-01-03T05:47:26.229Z,1013.86
2023-01-03T05:48:26.212Z,1013.85
2023-01-03T05:49:26.227Z,1013.85
2023-01-03T05:50:26.213Z,1013.85
2023-01-03T05:51:26.271Z,1013.86
2023-01-03T05:52:26.197Z,1013.84
2023-01-03T05:53:26.195Z,1013.85
2023-01-03T05:54:26.176Z,1013.83
2023-01-03T05:55:26.172Z,1013.84
2023-01-03T05:56:26.191Z,1013.84
2023-01-03T05:57:30.547Z,1013.85
2023-01-03T05:58:26.177Z,1013.84
2023-01-03T05:59:26.156Z,1013.84
2023-01-03T06:00:26.101Z,1013.85
2023-01-03T06:01:26.113Z,1013.85
2023-01-03T06:02:26.087Z,1013.88
2023-01-03T06:03:26.101Z,1013.87
2023-01-03T06:04:26.126Z,1013.86
2023-01-03T06:05:26.049Z,1013.86
2023-01-03T06:06:26.348Z,1013.84
2023-01-03T06:07:26.347Z,1013.83
2023-01-03T06:08:26.025Z,1013.81
2023-01-03T06:09:26.007Z,1013.80
2023-01-03T06:10:25.997Z,1013.80
2023-01-03T06:11:25.987Z,1013.82
2023-01-03T06:12:26.001Z,1013.84
2023-01-03T06:13:25.957Z,1013.85
2023-01-03T06:14:26.034Z,1013.87
2023-01-03T06:15:26.155Z,1013.87
2023-01-03T06:16:26.381Z,1013.88
2023-01-03T06:17:25.980Z,1013.90
2023-01-03T06:18:25.936Z,1013.89
2023-01-03T06:19:25.907Z,1013.87
2023-01-03T06:20:26.001Z,1013.88
2023-01-03T06:21:26.031Z,1013.88
2023-01-03T06:22:26.366Z,1013.89
2023-01-03T06:23:25.906Z,1013.87
2023-01-03T06:24:25.846Z,1013.88
2023-01-03T06:25:25.896Z,1013.86
2023-01-03T06:26:25.914Z,1013.83
2023-01-03T06:27:25.812Z,1013.84
2023-01-03T06:28:25.834Z,1013.81
2023-01-03T06:29:25.821Z,1013.81
2023-01-03T06:30:25.948Z,1013.81
2023-01-03T06:31:25.912Z,1013.82
2023-01-03T06:32:25.782Z,1013.84
2023-01-03T06:33:25.767Z,1013.83
2023-01-03T06:34:25.762Z,1013.85
2023-01-03T06:35:25.767Z,1013.86
2023-01-03T06:36:25.718Z,1013.90
2023-01-03T06:37:25.710Z,1013.94
2023-01-03T06:38:25.719Z,1013.92
2023-01-03T06:39:25.690Z,1013.95
2023-01-03T06:40:30.366Z,1013.93
2023-01-03T06:41:25.661Z,1013.95
2023-01-03T06:42:25.663Z,1013.95
2023-01-03T06:43:25.631Z,1013.95
2023-01-03T06:44:25.748Z,1013.95
2023-01-03T06:45:25.658Z,1013.95
2023-01-03T06:46:25.664Z,1013.93
2023-01-03T06:47:25.768Z,1013.92
2023-01-03T06:48:25.742Z,1013.90
2023-01-03T06:49:25.816Z,1013.86
2023-01-03T06:50:25.669Z,1013.85
2023-01-03T06:51:25.644Z,1013.84
2023-01-03T06:52:25.793Z,1013.84
2023-01-03T06:53:25.783Z,1013.83
2023-01-03T06:54:25.779Z,1013.83
2023-01-03T06:55:25.647Z,1013.83
2023-01-03T06:56:25.637Z,1013.84
2023-01-03T06:57:27.167Z,1013.84
2023-01-03T06:58:25.550Z,1013.84
2023-01-03T06:59:25.551Z,1013.86
2023-01-03T07:00:25.533Z,1013.86
2023-01-03T07:01:25.620Z,1013.87
2023-01-03T07:02:25.642Z,1013.87
2023-01-03T07:03:25.673Z,1013.87
2023-01-03T07:04:25.528Z,1013.88
2023-01-03T07:05:25.622Z,1013.87
2023-01-03T07:06:25.385Z,1013.87
2023-01-03T07:07:25.337Z,1013.88
2023-01-03T07:08:25.400Z,1013.88
2023-01-03T07:09:25.374Z,1013.88
2023-01-03T07:10:25.339Z,1013.88
2023-01-03T07:11:25.326Z,1013.90
2023-01-03T07:12:25.297Z,1013.91
2023-01-03T07:13:25.327Z,1013.94
2023-01-03T07:14:25.289Z,1013.96
2023-01-03T07:15:25.317Z,1013.97
2023-01-03T07:16:25.354Z,1013.99
2023-01-03T07:17:25.230Z,1014.02
2023-01-03T07:18:25.233Z,1014.03
2023-01-03T07:19:25.215Z,1014.05
2023-01-03T07:20:25.225Z,1014.06
2023-01-03T07:21:25.303Z,1014.10
2023-01-03T07:22:25.222Z,1014.11
2023-01-03T07:23:25.272Z,1014.14
2023-01-03T07:24:25.174Z,1014.13
2023-01-03T07:25:25.346Z,1014.14
2023-01-03T07:26:25.184Z,1014.14
2023-01-03T07:27:25.307Z,1014.13
2023-01-03T07:28:25.431Z,1014.12
2023-01-03T07:29:25.103Z,1014.13
2023-01-03T07:30:25.129Z,1014.12
2023-01-03T07:31:25.254Z,1014.10
2023-01-03T07:32:25.273Z,1014.09
2023-01-03T07:33:25.286Z,1014.11
2023-01-03T07:34:25.083Z,1014.10
2023-01-03T07:35:25.062Z,1014.10
2023-01-03T07:36:25.045Z,1014.10
2023-01-03T07:37:25.094Z,1014.10
2023-01-03T07:38:25.034Z,1014.09
2023-01-03T07:39:25.016Z,1014.08
2023-01-03T07:40:25.031Z,1014.07
2023-01-03T07:41:25.039Z,1014.07
2023-01-03T07:42:24.987Z,1014.06
2023-01-03T07:43:24.983Z,1014.06
2023-01-03T07:44:24.956Z,1014.06
2023-01-03T07:45:24.951Z,1014.06
2023-01-03T07:46:25.058Z,1014.06
2023-01-03T07:47:24.944Z,1014.03
2023-01-03T07:48:24.941Z,1014.02
2023-01-03T07:49:24.931Z,1014.03
2023-01-03T07:50:24.897Z,1014.05
2023-01-03T07:51:24.901Z,1014.05
2023-01-03T07:52:24.897Z,1014.04
2023-01-03T07:53:24.901Z,1014.05
2023-01-03T07:54:24.862Z,1014.04
2023-01-03T07:55:24.837Z,1014.04
2023-01-03T07:56:24.836Z,1014.02
2023-01-03T07:57:24.830Z,1014.00
2023-01-03T07:58:24.818Z,1014.01
2023-01-03T07:59:24.833Z,1014.02
2023-01-03T08:00:24.785Z,1014.01
2023-01-03T08:01:25.000Z,1014.01
2023-01-03T08:02:24.862Z,1014.03
2023-01-03T08:03:24.760Z,1014.02
2023-01-03T08:04:24.874Z,1014.04
2023-01-03T08:05:24.779Z,1014.04
2023-01-03T08:06:24.740Z,1014.03
2023-01-03T08:07:24.735Z,1014.06
2023-01-03T08:08:24.712Z,1014.07
2023-01-03T08:09:24.732Z,1014.06
2023-01-03T08:10:24.739Z,1014.04
2023-01-03T08:11:24.697Z,1014.05
2023-01-03T08:12:24.723Z,1014.03
2023-01-03T08:13:24.675Z,1014.01
2023-01-03T08:14:26.745Z,1014.00
2023-01-03T08:15:24.654Z,1013.97
2023-01-03T08:16:24.641Z,1013.96
2023-01-03T08:17:24.637Z,1013.96
2023-01-03T08:18:24.631Z,1013.98
2023-01-03T08:19:24.597Z,1013.97
2023-01-03T08:20:24.638Z,1013.94
2023-01-03T08:21:24.659Z,1013.93
2023-01-03T08:22:24.634Z,1013.94
2023-01-03T08:23:24.586Z,1013.93
2023-01-03T08:24:24.553Z,1013.97
2023-01-03T08:25:24.539Z,1013.97
2023-01-03T08:26:24.539Z,1013.96
2023-01-03T08:27:24.529Z,1013.95
2023-01-03T08:28:24.527Z,1013.98
2023-01-03T08:29:24.510Z,1013.98
2023-01-03T08:30:24.516Z,1014.00
2023-01-03T08:31:24.554Z,1014.01
2023-01-03T08:32:24.467Z,1014.02
2023-01-03T08:33:24.501Z,1014.03
2023-01-03T08:34:29.400Z,1014.02
2023-01-03T08:35:24.443Z,1014.00
2023-01-03T08:36:24.419Z,1014.01
2023-01-03T08:37:24.423Z,1014.03
2023-01-03T08:38:24.399Z,1014.05
2023-01-03T08:39:24.449Z,1014.07
2023-01-03T08:40:24.424Z,1014.10
2023-01-03T08:41:24.393Z,1014.12
2023-01-03T08:42:24.372Z,1014.15
2023-01-03T08:43:24.360Z,1014.15
2023-01-03T08:44:24.352Z,1014.15
2023-01-03T08:45:24.358Z,1014.15
2023-01-03T08:46:24.382Z,1014.14
2023-01-03T08:47:24.310Z,1014.15
2023-01-03T08:48:24.322Z,1014.15
2023-01-03T08:49:24.684Z,1014.13
2023-01-03T08:50:24.397Z,1014.14
2023-01-03T08:51:24.287Z,1014.13
2023-01-03T08:52:24.265Z,1014.14
2023-01-03T08:53:24.258Z,1014.15
2023-01-03T08:54:24.254Z,1014.17
2023-01-03T08:55:24.258Z,1014.17
2023-01-03T08:56:24.229Z,1014.16
2023-01-03T08:57:24.235Z,1014.16
2023-01-03T08:58:24.194Z,1014.14
2023-01-03T08:59:24.205Z,1014.12
2023-01-03T09:00:24.335Z,1014.12
2023-01-03T09:01:24.294Z,1014.11
2023-01-03T09:02:24.393Z,1014.12
2023-01-03T09:03:24.261Z,1014.11
2023-01-03T09:04:24.156Z,1014.10
2023-01-03T09:05:24.141Z,1014.13
2023-01-03T09:06:24.139Z,1014.16
2023-01-03T09:07:24.125Z,1014.16
2023-01-03T09:08:24.113Z,1014.17
2023-01-03T09:09:24.094Z,1014.16
2023-01-03T09:10:24.129Z,1014.15
2023-01-03T09:11:24.075Z,1014.10
2023-01-03T09:12:24.073Z,1014.09
2023-01-03T09:13:24.058Z,1014.07
2023-01-03T09:14:24.027Z,1014.06
2023-01-03T09:15:24.051Z,1014.06
2023-01-03T09:16:24.070Z,1014.05
2023-01-03T09:17:24.015Z,1014.08
2023-01-03T09:18:23.989Z,1014.09
2023-01-03T09:19:23.980Z,1014.09
2023-01-03T09:20:24.021Z,1014.10
2023-01-03T09:21:24.138Z,1014.12
2023-01-03T09:22:23.960Z,1014.12
2023-01-03T09:23:23.963Z,1014.12
2023-01-03T09:24:23.927Z,1014.14
2023-01-03T09:25:24.175Z,1014.16
2023-01-03T09:26:23.896Z,1014.16
2023-01-03T09:27:23.908Z,1014.17
2023-01-03T09:28:24.406Z,1014.18
2023-01-03T09:29:23.893Z,1014.20
2023-01-03T09:30:23.853Z,1014.19
2023-01-03T09:31:23.959Z,1014.20
2023-01-03T09:32:23.870Z,1014.22
2023-01-03T09:33:23.854Z,1014.22
2023-01-03T09:34:23.829Z,1014.23
2023-01-03T09:35:23.850Z,1014.22
2023-01-03T09:36:23.910Z,1014.20
2023-01-03T09:37:23.830Z,1014.16
2023-01-03T09:38:23.972Z,1014.12
2023-01-03T09:39:23.775Z,1014.10
2023-01-03T09:40:23.767Z,1014.09
2023-01-03T09:41:23.795Z,1014.08
2023-01-03T09:42:23.749Z,1014.08
2023-01-03T09:43:25.639Z,1014.07
2023-01-03T09:44:23.720Z,1014.06
2023-01-03T09:45:23.736Z,1014.07
2023-01-03T09:46:24.070Z,1014.06
2023-01-03T09:47:24.324Z,1014.03
2023-01-03T09:48:23.688Z,1014.03
2023-01-03T09:49:23.736Z,1014.04
2023-01-03T09:50:35.285Z,1014.02
2023-01-03T09:51:29.435Z,1014.05
2023-01-03T09:52:23.656Z,1014.07
2023-01-03T09:53:23.652Z,1014.07
2023-01-03T09:54:23.667Z,1014.10
2023-01-03T09:55:23.629Z,1014.14
2023-01-03T09:56:23.610Z,1014.15
2023-01-03T09:57:28.398Z,1014.15
2023-01-03T09:58:23.575Z,1014.13
2023-01-03T09:59:23.586Z,1014.12
2023-01-03T10:00:23.552Z,1014.13
2023-01-03T10:01:23.644Z,1014.12
2023-01-03T10:02:23.630Z,1014.13
2023-01-03T10:03:23.566Z,1014.14
2023-01-03T10:04:23.539Z,1014.14
2023-01-03T10:05:23.701Z,1014.15
2023-01-03T10:06:23.484Z,1014.16
2023-01-03T10:07:23.499Z,1014.17
2023-01-03T10:08:23.471Z,1014.16
2023-01-03T10:09:23.469Z,1014.18
2023-01-03T10:10:23.472Z,1014.22
2023-01-03T10:11:23.443Z,1014.21
2023-01-03T10:12:23.435Z,1014.23
2023-01-03T10:13:23.455Z,1014.25
2023-01-03T10:14:23.426Z,1014.24
2023-01-03T10:15:23.506Z,1014.26
2023-01-03T10:16:23.422Z,1014.27
2023-01-03T10:17:23.377Z,1014.27
2023-01-03T10:18:23.372Z,1014.27
2023-01-03T10:19:23.345Z,1014.25
2023-01-03T10:20:27.811Z,1014.27
2023-01-03T10:21:23.348Z,1014.28
2023-01-03T10:22:23.313Z,1014.25
2023-01-03T10:23:23.326Z,1014.25
2023-01-03T10:24:23.302Z,1014.25
2023-01-03T10:25:23.325Z,1014.27
2023-01-03T10:26:27.775Z,1014.23
2023-01-03T10:27:23.273Z,1014.19
2023-01-03T10:28:23.255Z,1014.24
2023-01-03T10:29:23.259Z,1014.17
2023-01-03T10:30:23.257Z,1014.16
2023-01-03T10:31:23.272Z,1014.13
2023-01-03T10:32:23.209Z,1014.11
2023-01-03T10:33:23.228Z,1014.08
2023-01-03T10:34:23.209Z,1014.10
2023-01-03T10:35:23.187Z,1014.12
2023-01-03T10:36:23.204Z,1014.11
2023-01-03T10:37:23.176Z,1014.11
2023-01-03T10:38:23.209Z,1014.12
2023-01-03T10:39:23.151Z,1014.15
2023-01-03T10:40:23.159Z,1014.16
2023-01-03T10:41:23.128Z,1014.16
2023-01-03T10:42:23.107Z,1014.18
2023-01-03T10:43:23.102Z,1014.14
2023-01-03T10:44:23.168Z,1014.14
2023-01-03T10:45:23.159Z,1014.12
2023-01-03T10:46:23.178Z,1014.09
2023-01-03T10:47:23.075Z,1014.10
2023-01-03T10:48:36.113Z,1014.08
2023-01-03T10:49:28.267Z,1014.08
2023-01-03T10:50:23.070Z,1014.06
2023-01-03T10:51:23.029Z,1014.06
2023-01-03T10:52:23.037Z,1014.04
2023-01-03T10:53:23.122Z,1014.03
2023-01-03T10:54:23.062Z,1014.00
2023-01-03T10:55:22.987Z,1013.98
2023-01-03T10:56:22.962Z,1013.98
2023-01-03T10:57:23.315Z,1013.93
2023-01-03T10:58:23.148Z,1013.92
2023-01-03T10:59:22.971Z,1013.88
2023-01-03T11:00:23.014Z,1013.90
2023-01-03T11:01:23.091Z,1013.90
2023-01-03T11:02:23.234Z,1013.92
2023-01-03T11:03:23.932Z,1013.89
2023-01-03T11:04:22.915Z,1013.87
2023-01-03T11:05:22.951Z,1013.85
2023-01-03T11:06:22.888Z,1013.89
2023-01-03T11:07:22.868Z,1013.86
2023-01-03T11:08:22.884Z,1013.86
2023-01-03T11:09:22.858Z,1013.83
2023-01-03T11:10:22.834Z,1013.84
2023-01-03T11:11:22.862Z,1013.84
2023-01-03T11:12:22.815Z,1013.82
2023-01-03T11:13:22.861Z,1013.81
2023-01-03T11:14:22.827Z,1013.78
2023-01-03T11:15:22.777Z,1013.78
2023-01-03T11:16:23.060Z,1013.80
2023-01-03T11:17:22.794Z,1013.76
2023-01-03T11:18:22.791Z,1013.76
2023-01-03T11:19:22.749Z,1013.76
2023-01-03T11:20:22.828Z,1013.71
2023-01-03T11:21:23.013Z,1013.71
2023-01-03T11:22:22.776Z,1013.70
2023-01-03T11:23:22.773Z,1013.69
2023-01-03T11:24:22.722Z,1013.69
2023-01-03T11:25:22.688Z,1013.68
2023-01-03T11:26:22.702Z,1013.69
2023-01-03T11:27:22.769Z,1013.69
2023-01-03T11:28:22.706Z,1013.70
2023-01-03T11:29:22.653Z,1013.70
2023-01-03T11:30:22.658Z,1013.69
2023-01-03T11:31:23.070Z,1013.69
2023-01-03T11:32:22.930Z,1013.74
2023-01-03T11:33:28.850Z,1013.74
2023-01-03T11:34:23.016Z,1013.76
2023-01-03T11:35:24.374Z,1013.75
2023-01-03T11:36:22.592Z,1013.71
2023-01-03T11:37:22.580Z,1013.70
2023-01-03T11:38:22.562Z,1013.72
2023-01-03T11:39:26.781Z,1013.74
2023-01-03T11:40:22.590Z,1013.78
2023-01-03T11:41:22.519Z,1013.76
2023-01-03T11:42:22.527Z,1013.72
2023-01-03T11:43:22.550Z,1013.72
2023-01-03T11:44:22.485Z,1013.73
2023-01-03T11:45:22.514Z,1013.73
2023-01-03T11:46:22.645Z,1013.73
2023-01-03T11:47:22.456Z,1013.72
2023-01-03T11:48:22.456Z,1013.72
2023-01-03T11:49:22.444Z,1013.78
2023-01-03T11:50:22.417Z,1013.73
2023-01-03T11:51:22.441Z,1013.78
2023-01-03T11:52:22.411Z,1013.77
2023-01-03T11:53:22.393Z,1013.72
2023-01-03T11:54:22.371Z,1013.65
2023-01-03T11:55:22.448Z,1013.69
2023-01-03T11:56:22.492Z,1013.65
2023-01-03T11:57:22.359Z,1013.65
2023-01-03T11:58:22.365Z,1013.64
2023-01-03T11:59:22.344Z,1013.58
2023-01-03T12:00:22.332Z,1013.58
2023-01-03T12:01:22.450Z,1013.58
2023-01-03T12:02:22.500Z,1013.46
2023-01-03T12:03:22.611Z,1013.58
2023-01-03T12:04:22.306Z,1013.65
2023-01-03T12:05:22.291Z,1013.59